This is the latest recevied weather packets stored in our database for station/object E27IHO-13. If no packets are shown the sender has not sent any weather packets the latest 10 day(s).
| Time | Temp. | Humidity | Pressure | Rain* | Wind** | Luminosity | Snow |
|---|---|---|---|---|---|---|---|
| 1777376831 | 33.33° C | 64% | 1006 hPa | - | - | 0 W/m² | - |
| 1777376695 | 33.89° C | 60% | 1006 hPa | - | - | 0 W/m² | - |
| 1777376373 | 33.89° C | 59% | 1006 hPa | - | - | 0 W/m² | - |
| 1777357798 | 38.89° C | 41% | 1008 hPa | - | - | 0 W/m² | - |
| 1777357477 | 38.89° C | 44% | 1008 hPa | - | - | 0 W/m² | - |
| 1777357154 | 38.89° C | 42% | 1008 hPa | - | - | 0 W/m² | - |
| 1777356832 | 38.33° C | 43% | 1008 hPa | - | - | 0 W/m² | - |
| 1777356510 | 38.33° C | 45% | 1008 hPa | - | - | 0 W/m² | - |
| 1777356188 | 38.33° C | 44% | 1008 hPa | - | - | 0 W/m² | - |
| 1777355866 | 38.33° C | 46% | 1008 hPa | - | - | 0 W/m² | - |
| 1777355544 | 37.78° C | 47% | 1008 hPa | - | - | 0 W/m² | - |
| 1777330623 | 29.44° C | 76% | 1009 hPa | - | - | 0 W/m² | - |
| 1777330301 | 29.44° C | 76% | 1009 hPa | - | - | 0 W/m² | - |
| 1777329979 | 28.89° C | 76% | 1009 hPa | - | - | 0 W/m² | - |
| 1777329657 | 28.89° C | 76% | 1009 hPa | - | - | 0 W/m² | - |
| 1777329335 | 28.89° C | 76% | 1009 hPa | - | - | 0 W/m² | - |
| 1777329013 | 28.89° C | 76% | 1008 hPa | - | - | 0 W/m² | - |
| 1777328691 | 28.89° C | 76% | 1008 hPa | - | - | 0 W/m² | - |
| 1777328369 | 28.89° C | 76% | 1008 hPa | - | - | 0 W/m² | - |
| 1777328047 | 29.44° C | 76% | 1008 hPa | - | - | 0 W/m² | - |
| 1777327725 | 28.89° C | 76% | 1008 hPa | - | - | 0 W/m² | - |
| 1777327403 | 29.44° C | 76% | 1008 hPa | - | - | 0 W/m² | - |
| 1777327081 | 29.44° C | 75% | 1008 hPa | - | - | 0 W/m² | - |
| 1777326759 | 29.44° C | 75% | 1008 hPa | - | - | 0 W/m² | - |
| 1777326437 | 29.44° C | 75% | 1008 hPa | - | - | 0 W/m² | - |
* Rain since midnight (hover to see other rain measurements)
** Current wind speed in m/s (hover to see current wind gust speed)